This is the latest recevied weather packets stored in our database for station/object N8HON. If no packets are shown the sender has not sent any weather packets the latest 10 day(s).
| Time | Temp. | Humidity | Pressure | Rain* | Wind** | Luminosity | Snow |
|---|---|---|---|---|---|---|---|
| 1777426455 | 15.56° C | 87% | 1014.7 hPa | 0 mm | - | 0 W/m² | - |
| 1777426150 | 15.56° C | 87% | 1014.7 hPa | 0 mm | - | 0 W/m² | - |
| 1777425845 | 15.56° C | 86% | 1014.7 hPa | 0 mm | - | 0 W/m² | - |
| 1777425541 | 15.56° C | 86% | 1014.6 hPa | 0 mm | - | 0 W/m² | - |
| 1777425236 | 15.56° C | 86% | 1014.5 hPa | 0 mm | - | 0 W/m² | - |
| 1777424934 | 16.11° C | 85% | 1014.5 hPa | 0 mm | - | 0 W/m² | - |
| 1777424629 | 16.11° C | 84% | 1014.5 hPa | 0 mm | - | 0 W/m² | - |
| 1777424324 | 16.11° C | 84% | 1014.5 hPa | 0 mm | - | 0 W/m² | - |
| 1777424020 | 16.11° C | 84% | 1014.5 hPa | 0 mm | - | 0 W/m² | - |
| 1777423718 | 16.11° C | 83% | 1014.2 hPa | 0 mm | - | 0 W/m² | - |
| 1777423413 | 16.11° C | 83% | 1013.9 hPa | 0 mm | - | 0 W/m² | - |
| 1777423113 | 16.67° C | 82% | 1013.6 hPa | 0 mm | - | 0 W/m² | - |
| 1777422808 | 16.67° C | 82% | 1013.1 hPa | 0 mm | - | 0 W/m² | - |
| 1777422505 | 16.67° C | 82% | 1013.4 hPa | 0 mm | - | 0 W/m² | - |
| 1777422200 | 16.67° C | 82% | 1013.2 hPa | 0 mm | - | 0 W/m² | - |
| 1777421899 | 16.67° C | 81% | 1012.9 hPa | 0 mm | - | 0 W/m² | - |
| 1777421595 | 16.67° C | 80% | 1012.8 hPa | 0 mm | - | 0 W/m² | - |
| 1777421290 | 17.22° C | 80% | 1012.7 hPa | 0 mm | - | 0 W/m² | - |
| 1777420987 | 17.22° C | 78% | 1012.4 hPa | 0 mm | - | 2 W/m² | - |
| 1777420683 | 18.33° C | 70% | 1012.4 hPa | 0 mm | - | 4 W/m² | - |
| 1777420380 | 18.89° C | 63% | 1012.6 hPa | 0 mm | - | 7 W/m² | - |
| 1777420075 | 18.33° C | 63% | 1012.9 hPa | 0 mm | - | 9 W/m² | - |
| 1777419773 | 18.89° C | 64% | 1012.8 hPa | 0 mm | - | 12 W/m² | - |
| 1777419470 | 18.89° C | 65% | 1012.5 hPa | 0 mm | - | 15 W/m² | - |
| 1777419170 | 18.89° C | 62% | 1012.8 hPa | 0 mm | - | 18 W/m² | - |
* Rain latest hour (hover to see other rain measurements)
** Current wind speed in m/s (hover to see current wind gust speed)